createdAt,value
2022-08-20T00:00:42.638Z,3.47
2022-08-20T00:03:15.185Z,4.65
2022-08-20T00:05:49.592Z,3.90
2022-08-20T00:08:17.923Z,3.58
2022-08-20T00:10:46.246Z,3.83
2022-08-20T00:13:20.261Z,4.63
2022-08-20T00:15:48.106Z,3.97
2022-08-20T00:18:15.414Z,3.85
2022-08-20T00:20:47.030Z,3.80
2022-08-20T00:23:14.763Z,3.92
2022-08-20T00:25:43.485Z,3.97
2022-08-20T00:30:39.828Z,4.13
2022-08-20T00:33:10.537Z,4.13
2022-08-20T00:35:43.109Z,4.43
2022-08-20T00:38:10.426Z,3.90
2022-08-20T00:40:56.595Z,4.72
2022-08-20T00:43:30.965Z,4.10
2022-08-20T00:46:00.582Z,4.55
2022-08-20T00:48:32.138Z,4.55
2022-08-20T00:51:07.646Z,5.22
2022-08-20T00:53:36.083Z,5.53
2022-08-20T00:56:05.348Z,5.45
2022-08-20T00:58:33.205Z,5.57
2022-08-20T01:01:00.503Z,5.80
2022-08-20T01:03:27.571Z,9.30
2022-08-20T01:05:54.515Z,5.80
2022-08-20T01:08:24.804Z,4.78
2022-08-20T01:10:54.074Z,4.80
2022-08-20T01:13:23.821Z,4.32
2022-08-20T01:15:54.895Z,4.72
2022-08-20T01:18:25.226Z,3.95
2022-08-20T01:20:56.843Z,4.53
2022-08-20T01:23:32.434Z,4.40
2022-08-20T01:26:09.090Z,4.88
2022-08-20T01:28:50.738Z,4.85
2022-08-20T01:31:21.525Z,4.57
2022-08-20T01:33:51.023Z,4.32
2022-08-20T01:36:23.467Z,4.68
2022-08-20T01:38:54.036Z,4.60
2022-08-20T01:42:13.172Z,4.15
2022-08-20T01:44:43.082Z,4.32
2022-08-20T01:47:13.018Z,4.13
2022-08-20T01:49:45.515Z,4.30
2022-08-20T01:52:22.956Z,4.68
2022-08-20T01:54:49.917Z,4.90
2022-08-20T01:57:19.210Z,4.57
2022-08-20T01:59:48.004Z,4.70
2022-08-20T02:02:15.014Z,4.78
2022-08-20T02:04:42.629Z,4.45
2022-08-20T02:07:15.975Z,4.43
2022-08-20T02:09:43.888Z,4.22
2022-08-20T02:12:14.463Z,4.75
2022-08-20T02:14:44.125Z,4.78
2022-08-20T02:17:12.585Z,4.57
2022-08-20T02:19:44.472Z,4.85
2022-08-20T02:22:23.675Z,5.80
2022-08-20T02:24:51.616Z,5.82
2022-08-20T02:27:19.218Z,5.25
2022-08-20T02:29:46.932Z,5.63
2022-08-20T02:32:24.137Z,6.50
2022-08-20T02:35:00.026Z,6.78
2022-08-20T02:37:28.382Z,6.05
2022-08-20T02:39:55.360Z,7.32
2022-08-20T02:42:22.402Z,5.63
2022-08-20T02:44:49.360Z,5.93
2022-08-20T02:47:17.342Z,6.32
2022-08-20T02:49:44.221Z,6.65
2022-08-20T02:52:11.266Z,7.28
2022-08-20T02:54:38.238Z,6.68
2022-08-20T02:57:05.451Z,6.85
2022-08-20T02:59:32.435Z,6.18
2022-08-20T03:02:00.516Z,6.38
2022-08-20T03:04:31.200Z,5.60
2022-08-20T03:06:59.397Z,6.43
2022-08-20T03:09:26.657Z,6.70
2022-08-20T03:11:54.545Z,6.70
2022-08-20T03:14:21.679Z,5.20
2022-08-20T03:16:48.738Z,5.75
2022-08-20T03:19:15.910Z,6.25
2022-08-20T03:21:43.005Z,6.22
2022-08-20T03:24:10.051Z,5.35
2022-08-20T03:26:37.051Z,5.90
2022-08-20T03:29:04.073Z,5.82
2022-08-20T03:31:31.226Z,6.05
2022-08-20T03:33:58.155Z,5.65
2022-08-20T03:36:28.137Z,7.22
2022-08-20T03:39:01.331Z,6.20
2022-08-20T03:41:29.270Z,5.93
2022-08-20T03:43:56.404Z,6.83
2022-08-20T03:46:24.125Z,6.43
2022-08-20T03:49:00.366Z,6.57
2022-08-20T03:51:56.996Z,6.57
2022-08-20T03:54:19.248Z,6.13
2022-08-20T03:56:46.213Z,6.78
2022-08-20T03:59:13.168Z,6.93
2022-08-20T04:01:45.803Z,7.18
2022-08-20T04:04:14.358Z,7.40
2022-08-20T04:06:42.554Z,6.60
2022-08-20T04:09:11.954Z,7.88
2022-08-20T04:11:40.428Z,7.80
2022-08-20T04:14:07.746Z,5.40
2022-08-20T04:16:37.835Z,6.63
2022-08-20T04:19:05.307Z,6.60
2022-08-20T04:21:33.643Z,7.65
2022-08-20T04:24:05.585Z,7.45
2022-08-20T04:26:35.399Z,7.60
2022-08-20T04:29:02.409Z,7.60
2022-08-20T04:31:35.333Z,7.80
2022-08-20T04:34:03.945Z,8.40
2022-08-20T04:36:31.256Z,6.95
2022-08-20T04:38:58.271Z,7.43
2022-08-20T04:41:25.282Z,7.63
2022-08-20T04:43:54.544Z,14.02
2022-08-20T04:46:24.044Z,13.50
2022-08-20T04:48:51.281Z,7.47
2022-08-20T04:51:18.899Z,10.30
2022-08-20T04:53:52.251Z,8.70
2022-08-20T04:56:24.152Z,8.45
2022-08-20T04:58:52.990Z,7.40
2022-08-20T05:01:19.996Z,8.48
2022-08-20T05:03:49.930Z,9.52
2022-08-20T05:06:18.310Z,7.07
2022-08-20T05:08:45.708Z,8.07
2022-08-20T05:11:34.881Z,8.00
2022-08-20T05:14:02.019Z,7.85
2022-08-20T05:16:28.961Z,7.32
2022-08-20T05:18:55.901Z,7.70
2022-08-20T05:21:23.161Z,8.32
2022-08-20T05:23:50.117Z,7.78
2022-08-20T05:26:20.495Z,9.23
2022-08-20T05:28:57.854Z,7.70
2022-08-20T05:31:31.399Z,7.32
2022-08-20T05:34:10.421Z,7.65
2022-08-20T05:36:44.876Z,6.68
2022-08-20T05:39:12.926Z,6.32
2022-08-20T05:41:40.795Z,7.00
2022-08-20T05:44:11.001Z,6.40
2022-08-20T05:46:41.301Z,6.72
2022-08-20T05:49:15.719Z,6.50
2022-08-20T05:51:43.436Z,6.95
2022-08-20T05:54:10.472Z,5.68
2022-08-20T05:56:37.926Z,6.82
2022-08-20T05:59:08.135Z,7.55
2022-08-20T06:01:37.983Z,6.28
2022-08-20T06:04:24.102Z,6.47
2022-08-20T06:07:02.665Z,9.40
2022-08-20T06:12:02.169Z,8.48
2022-08-20T06:14:29.421Z,7.25
2022-08-20T06:17:02.764Z,6.30
2022-08-20T06:19:32.298Z,7.57
2022-08-20T06:22:00.402Z,7.13
2022-08-20T06:24:27.427Z,7.10
2022-08-20T06:26:59.679Z,8.13
2022-08-20T06:29:28.333Z,7.50
2022-08-20T06:34:23.644Z,7.05
2022-08-20T06:36:50.635Z,6.68
2022-08-20T06:39:17.631Z,5.88
2022-08-20T06:41:45.230Z,6.72
2022-08-20T06:44:12.194Z,5.68
2022-08-20T06:46:39.203Z,5.35
2022-08-20T06:49:07.585Z,7.13
2022-08-20T06:51:35.350Z,6.72
2022-08-20T06:54:02.263Z,6.70
2022-08-20T06:56:29.228Z,5.53
2022-08-20T06:58:56.116Z,6.40
2022-08-20T07:01:23.279Z,5.63
2022-08-20T07:03:55.379Z,6.30
2022-08-20T07:06:25.994Z,6.60
2022-08-20T07:08:56.045Z,6.25
2022-08-20T07:11:27.751Z,6.65
2022-08-20T07:13:56.937Z,5.25
2022-08-20T07:16:24.411Z,5.85
2022-08-20T07:18:51.527Z,5.78
2022-08-20T07:21:18.511Z,5.88
2022-08-20T07:23:45.559Z,6.20
2022-08-20T07:26:13.414Z,5.75
2022-08-20T07:28:40.796Z,6.20
2022-08-20T07:31:26.987Z,6.70
2022-08-20T07:33:54.275Z,6.68
2022-08-20T07:36:21.407Z,6.57
2022-08-20T07:38:51.129Z,6.13
2022-08-20T07:41:19.469Z,6.43
2022-08-20T07:43:47.381Z,5.80
2022-08-20T07:46:17.950Z,6.07
2022-08-20T07:48:50.574Z,5.60
2022-08-20T07:51:20.177Z,6.45
2022-08-20T07:53:48.533Z,6.10
2022-08-20T07:56:19.722Z,5.28
2022-08-20T07:58:52.605Z,6.30
2022-08-20T08:01:22.599Z,5.78
2022-08-20T08:03:50.715Z,6.30
2022-08-20T08:06:29.374Z,6.15
2022-08-20T08:09:13.375Z,6.40
2022-08-20T08:11:49.193Z,5.38
2022-08-20T08:14:23.696Z,5.47
2022-08-20T08:16:53.086Z,6.18
2022-08-20T08:19:20.444Z,5.82
2022-08-20T08:21:47.627Z,6.25
2022-08-20T08:24:20.312Z,6.00
2022-08-20T08:26:50.375Z,5.90
2022-08-20T08:29:17.807Z,6.40
2022-08-20T08:31:45.230Z,6.53
2022-08-20T08:34:13.260Z,6.03
2022-08-20T08:36:40.464Z,7.05
2022-08-20T08:39:07.497Z,6.47
2022-08-20T08:41:40.641Z,5.32
2022-08-20T08:44:12.991Z,7.10
2022-08-20T08:46:43.513Z,6.60
2022-08-20T08:49:14.619Z,7.32
2022-08-20T08:51:57.517Z,4.78
2022-08-20T08:54:29.444Z,6.05
2022-08-20T08:56:56.719Z,5.88
2022-08-20T08:59:24.010Z,5.35
2022-08-20T09:01:57.122Z,5.80
2022-08-20T09:04:33.404Z,5.93
2022-08-20T09:07:03.077Z,6.10
2022-08-20T09:09:37.095Z,5.90
2022-08-20T09:12:12.830Z,5.70
2022-08-20T09:14:40.131Z,5.47
2022-08-20T09:17:07.919Z,5.20
2022-08-20T09:19:35.286Z,5.80
2022-08-20T09:22:13.338Z,5.80
2022-08-20T09:27:07.945Z,6.07
2022-08-20T09:29:35.626Z,6.27
2022-08-20T09:32:12.021Z,6.65
2022-08-20T09:34:42.734Z,6.03
2022-08-20T09:37:10.575Z,5.88
2022-08-20T09:39:37.610Z,5.68
2022-08-20T09:42:10.033Z,5.53
2022-08-20T09:44:37.549Z,5.38
2022-08-20T09:47:04.758Z,5.00
2022-08-20T09:49:31.904Z,5.22
2022-08-20T09:52:01.512Z,5.65
2022-08-20T09:54:30.361Z,5.70
2022-08-20T09:56:58.839Z,5.32
2022-08-20T09:59:27.020Z,5.22
2022-08-20T10:04:21.045Z,4.72
2022-08-20T10:06:47.978Z,4.78
2022-08-20T10:09:15.168Z,4.60
2022-08-20T10:11:42.177Z,4.97
2022-08-20T10:14:11.625Z,3.83
2022-08-20T10:16:38.553Z,5.32
2022-08-20T10:19:06.054Z,4.47
2022-08-20T10:21:38.082Z,5.22
2022-08-20T10:24:05.878Z,4.68
2022-08-20T10:26:32.884Z,5.10
2022-08-20T10:28:59.886Z,5.65
2022-08-20T10:31:27.083Z,5.65
2022-08-20T10:33:54.081Z,6.00
2022-08-20T10:36:21.033Z,5.45
2022-08-20T10:38:49.299Z,5.32
2022-08-20T10:41:16.319Z,5.05
2022-08-20T10:43:43.342Z,5.40
2022-08-20T10:46:10.294Z,4.82
2022-08-20T10:48:37.553Z,5.53
2022-08-20T10:51:04.846Z,5.63
2022-08-20T10:53:32.047Z,5.90
2022-08-20T10:55:59.451Z,5.30
2022-08-20T10:58:27.331Z,4.85
2022-08-20T11:01:05.118Z,4.75
2022-08-20T11:03:32.077Z,5.43
2022-08-20T11:05:59.079Z,6.20
2022-08-20T11:08:34.460Z,6.05
2022-08-20T11:11:04.463Z,4.70
2022-08-20T11:13:33.401Z,5.78
2022-08-20T11:16:01.321Z,5.00
2022-08-20T11:18:28.520Z,5.03
2022-08-20T11:20:56.311Z,5.07
2022-08-20T11:23:23.244Z,5.40
2022-08-20T11:25:50.719Z,5.15
2022-08-20T11:28:31.426Z,5.55
2022-08-20T11:30:59.449Z,5.55
2022-08-20T11:33:26.392Z,5.57
2022-08-20T11:35:53.381Z,5.55
2022-08-20T11:38:20.370Z,4.63
2022-08-20T11:40:47.929Z,4.82
2022-08-20T11:43:16.957Z,4.95
2022-08-20T11:45:52.919Z,5.35
2022-08-20T11:48:20.131Z,4.55
2022-08-20T11:50:48.322Z,5.17
2022-08-20T11:55:42.640Z,5.15
2022-08-20T11:58:10.797Z,4.97
2022-08-20T12:03:09.585Z,5.38
2022-08-20T12:05:42.996Z,5.88
2022-08-20T12:08:27.290Z,5.97
2022-08-20T12:11:01.553Z,5.47
2022-08-20T12:13:48.424Z,5.90
2022-08-20T12:16:19.964Z,6.00
2022-08-20T12:18:47.920Z,5.72
2022-08-20T12:21:15.237Z,5.40
2022-08-20T12:23:42.387Z,5.30
2022-08-20T12:26:09.432Z,5.50
2022-08-20T12:28:36.951Z,5.22
2022-08-20T12:31:03.982Z,7.53
2022-08-20T12:33:31.251Z,5.65
2022-08-20T12:35:58.317Z,6.77
2022-08-20T12:38:25.457Z,7.28
2022-08-20T12:40:52.412Z,5.97
2022-08-20T12:43:24.237Z,7.57
2022-08-20T12:45:52.157Z,6.68
2022-08-20T12:48:21.876Z,5.78
2022-08-20T12:50:50.316Z,7.95
2022-08-20T12:53:17.629Z,7.63
2022-08-20T12:55:45.073Z,7.80
2022-08-20T12:58:12.108Z,8.25
2022-08-20T13:00:47.250Z,9.73
2022-08-20T13:05:45.487Z,8.77
2022-08-20T13:08:13.047Z,8.82
2022-08-20T13:10:44.584Z,8.77
2022-08-20T13:13:13.393Z,8.02
2022-08-20T13:15:40.935Z,8.65
2022-08-20T13:18:08.495Z,9.32
2022-08-20T13:20:37.105Z,9.40
2022-08-20T13:23:05.652Z,9.95
2022-08-20T13:28:02.435Z,8.93
2022-08-20T13:30:29.591Z,14.02
2022-08-20T13:32:56.815Z,9.00
2022-08-20T13:35:23.997Z,7.70
2022-08-20T13:37:51.191Z,8.63
2022-08-20T13:40:18.766Z,7.18
2022-08-20T13:42:45.932Z,6.70
2022-08-20T13:45:13.407Z,7.00
2022-08-20T13:47:42.285Z,7.82
2022-08-20T13:50:16.379Z,7.80
2022-08-20T13:52:44.046Z,7.20
2022-08-20T13:55:14.798Z,8.85
2022-08-20T13:57:42.392Z,11.15
2022-08-20T14:00:13.475Z,11.57
2022-08-20T14:02:42.015Z,13.38
2022-08-20T14:05:09.883Z,13.20
2022-08-20T14:07:38.279Z,13.57
2022-08-20T14:10:13.933Z,14.27
2022-08-20T14:12:41.231Z,15.48
2022-08-20T14:15:11.895Z,16.98
2022-08-20T14:17:42.550Z,18.95
2022-08-20T14:20:13.150Z,17.40
2022-08-20T14:22:41.553Z,15.95
2022-08-20T14:25:11.787Z,16.10
2022-08-20T14:27:39.458Z,14.88
2022-08-20T14:30:09.527Z,15.68
2022-08-20T14:32:36.770Z,14.85
2022-08-20T14:35:04.447Z,15.10
2022-08-20T14:37:38.289Z,16.83
2022-08-20T14:40:09.396Z,16.80
2022-08-20T14:42:36.864Z,16.95
2022-08-20T14:45:06.637Z,17.58
2022-08-20T14:47:36.664Z,15.18
2022-08-20T14:50:08.851Z,17.35
2022-08-20T14:52:36.910Z,15.95
2022-08-20T14:55:10.473Z,17.50
2022-08-20T14:57:38.693Z,14.63
2022-08-20T15:00:10.095Z,17.60
2022-08-20T15:02:37.821Z,9.90
2022-08-20T15:05:07.179Z,10.25
2022-08-20T15:07:37.199Z,8.93
2022-08-20T15:10:10.130Z,13.55
2022-08-20T15:12:37.138Z,13.80
2022-08-20T15:15:15.373Z,14.82
2022-08-20T15:17:58.095Z,12.55
2022-08-20T15:20:28.258Z,8.95
2022-08-20T15:22:55.669Z,7.53
2022-08-20T15:25:25.521Z,9.25
2022-08-20T15:28:00.714Z,8.13
2022-08-20T15:30:31.051Z,6.70
2022-08-20T15:32:58.261Z,6.55
2022-08-20T15:35:27.401Z,6.80
2022-08-20T15:37:57.571Z,7.45
2022-08-20T15:40:28.432Z,7.72
2022-08-20T15:42:57.843Z,8.65
2022-08-20T15:45:25.791Z,8.85
2022-08-20T15:48:15.484Z,9.07
2022-08-20T15:50:48.218Z,7.82
2022-08-20T15:53:27.953Z,7.90
2022-08-20T15:56:21.851Z,9.07
2022-08-20T15:59:04.032Z,8.90
2022-08-20T16:01:44.318Z,8.90
2022-08-20T16:04:26.722Z,8.75
2022-08-20T16:07:00.645Z,11.25
2022-08-20T16:09:45.891Z,10.02
2022-08-20T16:12:19.854Z,10.80
2022-08-20T16:14:48.243Z,10.05
2022-08-20T16:17:21.965Z,10.50
2022-08-20T16:20:02.352Z,8.88
2022-08-20T16:22:31.682Z,11.07
2022-08-20T16:24:58.802Z,11.00
2022-08-20T16:27:31.860Z,10.15
2022-08-20T16:30:34.836Z,8.90
2022-08-20T16:33:31.578Z,12.13
2022-08-20T16:36:15.044Z,12.63
2022-08-20T16:38:48.405Z,11.05
2022-08-20T16:41:21.745Z,11.88
2022-08-20T16:43:56.375Z,12.18
2022-08-20T16:46:34.026Z,11.15
2022-08-20T16:49:11.450Z,10.27
2022-08-20T16:51:43.672Z,9.20
2022-08-20T16:54:12.891Z,10.68
2022-08-20T16:56:56.929Z,9.05
2022-08-20T16:59:27.086Z,9.20
2022-08-20T17:02:10.909Z,10.82
2022-08-20T17:04:59.333Z,10.35
2022-08-20T17:07:42.553Z,10.80
2022-08-20T17:10:25.272Z,9.00
2022-08-20T17:13:01.024Z,10.70
2022-08-20T17:15:31.318Z,10.43
2022-08-20T17:17:58.553Z,11.43
2022-08-20T17:20:29.024Z,10.48
2022-08-20T17:23:11.176Z,10.57
2022-08-20T17:25:38.646Z,10.75
2022-08-20T17:28:20.700Z,11.68
2022-08-20T17:30:48.181Z,11.82
2022-08-20T17:33:27.090Z,10.60
2022-08-20T17:36:04.968Z,10.73
2022-08-20T17:38:40.080Z,10.70
2022-08-20T17:41:17.592Z,8.95
2022-08-20T17:43:45.093Z,9.32
2022-08-20T17:46:19.288Z,8.77
2022-08-20T17:48:48.289Z,8.75
2022-08-20T17:51:21.625Z,8.43
2022-08-20T17:53:57.065Z,8.38
2022-08-20T17:56:32.694Z,8.25
2022-08-20T17:59:07.454Z,7.97
2022-08-20T18:01:37.796Z,7.85
2022-08-20T18:04:05.012Z,7.53
2022-08-20T18:06:58.174Z,8.90
2022-08-20T18:09:38.555Z,5.90
2022-08-20T18:12:34.130Z,5.25
2022-08-20T18:15:24.461Z,5.32
2022-08-20T18:18:00.796Z,5.35
2022-08-20T18:20:49.569Z,5.00
2022-08-20T18:25:53.294Z,4.13
2022-08-20T18:28:35.177Z,2.88
2022-08-20T18:31:09.137Z,3.33
2022-08-20T18:33:37.998Z,3.92
2022-08-20T18:36:19.703Z,3.67
2022-08-20T18:39:23.705Z,6.40
2022-08-20T18:42:05.682Z,3.55
2022-08-20T18:44:39.504Z,4.15
2022-08-20T18:47:19.807Z,4.07
2022-08-20T18:49:47.472Z,4.20
2022-08-20T18:52:27.640Z,3.72
2022-08-20T18:54:57.532Z,3.35
2022-08-20T18:57:27.283Z,2.75
2022-08-20T19:00:13.365Z,2.80
2022-08-20T19:02:57.860Z,2.63
2022-08-20T19:05:40.506Z,3.10
2022-08-20T19:08:08.103Z,2.35
2022-08-20T19:10:37.954Z,2.65
2022-08-20T19:13:33.456Z,2.35
2022-08-20T19:16:08.990Z,2.83
2022-08-20T19:18:53.261Z,2.25
2022-08-20T19:21:26.133Z,3.00
2022-08-20T19:23:58.105Z,3.40
2022-08-20T19:26:29.285Z,2.90
2022-08-20T19:29:02.094Z,3.20
2022-08-20T19:31:32.865Z,2.53
2022-08-20T19:34:19.993Z,2.80
2022-08-20T19:37:35.519Z,3.53
2022-08-20T19:39:58.614Z,3.47
2022-08-20T19:45:06.214Z,2.72
2022-08-20T19:47:37.807Z,2.60
2022-08-20T19:50:23.951Z,3.92
2022-08-20T19:53:06.912Z,3.60
2022-08-20T19:55:37.281Z,3.97
2022-08-20T19:58:18.809Z,3.90
2022-08-20T20:00:55.498Z,3.03
2022-08-20T20:03:28.659Z,2.78
2022-08-20T20:06:15.168Z,2.70
2022-08-20T20:08:55.769Z,4.00
2022-08-20T20:11:30.539Z,3.75
2022-08-20T20:14:04.349Z,3.35
2022-08-20T20:16:32.583Z,2.35
2022-08-20T20:19:24.692Z,2.10
2022-08-20T20:21:49.852Z,2.85
2022-08-20T20:24:29.737Z,1.48
2022-08-20T20:26:59.457Z,9.13
2022-08-20T20:29:33.674Z,7.00
2022-08-20T20:32:11.971Z,4.70
2022-08-20T20:34:55.486Z,2.75
2022-08-20T20:37:50.906Z,2.70
2022-08-20T20:40:26.332Z,3.45
2022-08-20T20:43:22.139Z,3.00
2022-08-20T20:45:59.399Z,2.78
2022-08-20T20:48:33.810Z,3.35
2022-08-20T20:51:12.240Z,3.85
2022-08-20T20:53:49.561Z,3.45
2022-08-20T20:56:32.201Z,3.72
2022-08-20T20:59:03.983Z,4.73
2022-08-20T21:01:48.658Z,5.57
2022-08-20T21:04:22.641Z,6.28
2022-08-20T21:06:52.302Z,4.22
2022-08-20T21:09:20.491Z,5.82
2022-08-20T21:11:47.942Z,5.70
2022-08-20T21:14:16.254Z,5.97
2022-08-20T21:16:44.145Z,5.80
2022-08-20T21:19:12.272Z,7.28
2022-08-20T21:21:40.045Z,6.63
2022-08-20T21:24:07.371Z,6.97
2022-08-20T21:26:34.993Z,4.95
2022-08-20T21:29:02.130Z,8.73
2022-08-20T21:31:36.247Z,10.70
2022-08-20T21:34:03.448Z,6.88
2022-08-20T21:36:30.476Z,7.57
2022-08-20T21:38:57.442Z,8.57
2022-08-20T21:41:29.559Z,7.90
2022-08-20T21:43:58.974Z,7.43
2022-08-20T21:46:28.896Z,7.63
2022-08-20T21:48:56.647Z,7.82
2022-08-20T21:51:23.803Z,7.95
2022-08-20T21:53:50.720Z,6.68
2022-08-20T21:56:18.392Z,6.40
2022-08-20T21:58:47.346Z,7.53
2022-08-20T22:03:43.030Z,5.95
2022-08-20T22:06:12.503Z,5.72
2022-08-20T22:08:39.825Z,5.60
2022-08-20T22:11:09.038Z,5.22
2022-08-20T22:13:36.557Z,5.85
2022-08-20T22:16:07.558Z,5.07
2022-08-20T22:18:35.076Z,4.90
2022-08-20T22:21:03.304Z,5.32
2022-08-20T22:23:30.365Z,6.78
2022-08-20T22:25:57.322Z,6.80
2022-08-20T22:28:24.455Z,6.82
2022-08-20T22:30:51.470Z,6.47
2022-08-20T22:33:23.390Z,6.95
2022-08-20T22:35:54.729Z,8.93
2022-08-20T22:38:22.995Z,7.55
2022-08-20T22:40:50.078Z,7.13
2022-08-20T22:43:17.086Z,6.72
2022-08-20T22:45:47.389Z,7.18
2022-08-20T22:48:17.013Z,8.05
2022-08-20T22:50:45.167Z,8.57
2022-08-20T22:53:13.901Z,8.70
2022-08-20T22:55:40.859Z,8.57
2022-08-20T22:58:08.648Z,8.23
2022-08-20T23:00:38.762Z,8.60
2022-08-20T23:03:07.229Z,7.77
2022-08-20T23:05:37.440Z,9.90
2022-08-20T23:08:06.949Z,9.20
2022-08-20T23:10:36.164Z,8.75
2022-08-20T23:13:03.170Z,8.80
2022-08-20T23:15:33.050Z,10.10
2022-08-20T23:18:08.104Z,10.38
2022-08-20T23:20:35.758Z,10.57
2022-08-20T23:23:02.995Z,10.05
2022-08-20T23:25:30.230Z,9.73
2022-08-20T23:28:04.197Z,10.82
2022-08-20T23:30:31.466Z,8.63
2022-08-20T23:33:01.555Z,7.90
2022-08-20T23:35:32.906Z,11.15
2022-08-20T23:38:00.677Z,20.63
2022-08-20T23:40:29.386Z,10.90
2022-08-20T23:42:57.669Z,9.43
2022-08-20T23:45:25.839Z,11.18
2022-08-20T23:47:53.286Z,10.18
2022-08-20T23:50:24.747Z,12.40
2022-08-20T23:52:52.616Z,11.38
2022-08-20T23:55:20.462Z,12.73
2022-08-20T23:57:47.416Z,8.90
